createdAt,value
2023-05-10T00:02:09.333Z,101700.53
2023-05-10T00:05:32.069Z,101707.53
2023-05-10T00:08:54.724Z,101703.22
2023-05-10T00:12:18.693Z,101703.25
2023-05-10T00:15:41.362Z,101698.97
2023-05-10T00:19:04.217Z,101703.34
2023-05-10T00:22:26.685Z,101710.28
2023-05-10T00:25:49.330Z,101705.97
2023-05-10T00:29:13.206Z,101692.19
2023-05-10T00:32:36.042Z,101703.41
2023-05-10T00:35:59.129Z,101702.53
2023-05-10T00:39:21.778Z,101697.44
2023-05-10T00:42:44.236Z,101708.63
2023-05-10T00:46:09.472Z,101712.97
2023-05-10T00:49:32.605Z,101694.88
2023-05-10T00:52:55.767Z,101707.78
2023-05-10T00:56:19.133Z,101712.13
2023-05-10T00:59:42.301Z,101706.97
2023-05-10T01:03:06.872Z,101706.97
2023-05-10T01:06:29.874Z,101708.72
2023-05-10T01:09:52.825Z,101703.53
2023-05-10T01:13:16.123Z,101700.06
2023-05-10T01:16:41.303Z,101694.94
2023-05-10T01:20:05.496Z,101695.75
2023-05-10T01:24:11.487Z,101700.06
2023-05-10T01:28:08.420Z,101698.34
2023-05-10T01:32:11.629Z,101707.88
2023-05-10T01:35:40.838Z,101700.13
2023-05-10T01:39:14.227Z,101675.19
2023-05-10T01:42:43.616Z,101697.53
2023-05-10T01:46:12.017Z,101698.38
2023-05-10T01:49:41.748Z,101697.56
2023-05-10T01:53:04.914Z,101706.22
2023-05-10T01:56:30.948Z,101674.44
2023-05-10T01:59:55.236Z,101709.78
2023-05-10T02:03:21.495Z,101706.34
2023-05-10T02:06:47.806Z,101711.53
2023-05-10T02:10:12.778Z,101701.19
2023-05-10T02:13:40.794Z,101708.06
2023-05-10T02:17:07.137Z,101708.06
2023-05-10T02:20:30.207Z,101707.19
2023-05-10T02:23:56.227Z,101696.88
2023-05-10T02:27:22.364Z,101697.69
2023-05-10T02:30:45.939Z,101707.97
2023-05-10T02:34:10.697Z,101706.22
2023-05-10T02:37:34.927Z,101699.31
2023-05-10T02:40:59.934Z,101702.66
2023-05-10T02:44:23.508Z,101701.78
2023-05-10T02:47:46.212Z,101689.66
2023-05-10T02:51:11.178Z,101706.84
2023-05-10T02:54:41.101Z,101702.50
2023-05-10T02:58:06.321Z,101700.72
2023-05-10T03:01:29.003Z,101702.41
2023-05-10T03:04:51.833Z,101704.94
2023-05-10T03:08:14.879Z,101700.56
2023-05-10T03:11:56.385Z,101700.53
2023-05-10T03:15:28.146Z,101707.41
2023-05-10T03:18:57.649Z,101697.88
2023-05-10T03:22:27.796Z,101707.34
2023-05-10T03:25:52.451Z,101703.84
2023-05-10T03:29:16.856Z,101704.66
2023-05-10T03:32:40.991Z,101709.81
2023-05-10T03:36:03.827Z,101705.50
2023-05-10T03:39:26.475Z,101702.03
2023-05-10T03:42:48.931Z,101699.38
2023-05-10T03:46:11.809Z,101706.25
2023-05-10T03:49:35.768Z,101694.09
2023-05-10T03:52:58.733Z,101714.72
2023-05-10T03:56:22.094Z,101712.88
2023-05-10T03:59:48.244Z,101707.53
2023-05-10T04:03:11.002Z,101712.53
2023-05-10T04:06:38.194Z,101707.13
2023-05-10T04:10:01.051Z,101714.47
2023-05-10T04:13:24.315Z,101709.59
2023-05-10T04:16:47.380Z,101717.56
2023-05-10T04:20:11.417Z,101719.38
2023-05-10T04:23:35.408Z,101718.59
2023-05-10T04:26:58.453Z,101712.69
2023-05-10T04:30:21.885Z,101715.25
2023-05-10T04:33:44.793Z,101715.97
2023-05-10T04:37:08.772Z,101718.50
2023-05-10T04:40:32.882Z,101720.13
2023-05-10T04:43:55.409Z,101720.06
2023-05-10T04:47:18.683Z,101683.84
2023-05-10T04:50:42.469Z,101723.38
2023-05-10T04:54:06.832Z,101718.91
2023-05-10T04:57:31.052Z,101725.06
2023-05-10T05:00:53.686Z,101720.75
2023-05-10T05:04:16.343Z,101722.31
2023-05-10T05:07:39.821Z,101723.09
2023-05-10T05:11:02.173Z,101723.00
2023-05-10T05:14:26.659Z,101714.00
2023-05-10T05:17:49.667Z,101721.66
2023-05-10T05:21:19.059Z,101715.34
2023-05-10T05:24:42.196Z,101723.84
2023-05-10T05:28:04.850Z,101717.59
2023-05-10T05:31:31.489Z,101712.63
2023-05-10T05:34:54.560Z,101722.03
2023-05-10T05:38:17.006Z,101717.06
2023-05-10T05:41:39.453Z,101713.91
2023-05-10T05:45:02.226Z,101684.72
2023-05-10T05:48:26.600Z,101715.94
2023-05-10T05:51:50.795Z,101706.56
2023-05-10T05:55:14.249Z,101714.63
2023-05-10T05:58:36.814Z,101714.09
2023-05-10T06:02:00.166Z,101712.63
2023-05-10T06:05:24.266Z,101710.91
2023-05-10T06:08:47.335Z,101712.00
2023-05-10T06:12:10.198Z,101708.16
2023-05-10T06:15:34.090Z,101710.19
2023-05-10T06:18:57.443Z,101701.63
2023-05-10T06:22:21.533Z,101700.81
2023-05-10T06:25:44.385Z,101700.16
2023-05-10T06:29:07.551Z,101702.72
2023-05-10T06:32:30.643Z,101703.75
2023-05-10T06:35:53.878Z,101705.59
2023-05-10T06:39:17.972Z,101700.25
2023-05-10T06:42:41.246Z,101696.41
2023-05-10T06:46:04.107Z,101702.97
2023-05-10T06:49:27.277Z,101694.00
2023-05-10T06:52:51.163Z,101699.63
2023-05-10T06:56:17.685Z,101703.75
2023-05-10T06:59:40.577Z,101708.09
2023-05-10T07:03:03.823Z,101699.72
2023-05-10T07:06:33.365Z,101704.47
2023-05-10T07:09:57.919Z,101701.03
2023-05-10T07:13:22.128Z,101706.00
2023-05-10T07:16:45.785Z,101702.69
2023-05-10T07:20:09.871Z,101696.31
2023-05-10T07:23:35.190Z,101698.03
2023-05-10T07:26:57.837Z,101697.28
2023-05-10T07:30:22.766Z,101701.50
2023-05-10T07:33:45.703Z,101696.81
2023-05-10T07:37:11.245Z,101683.91
2023-05-10T07:40:34.082Z,101701.34
2023-05-10T07:43:56.937Z,101698.84
2023-05-10T07:47:20.879Z,101696.25
2023-05-10T07:50:43.676Z,101699.75
2023-05-10T07:54:06.539Z,101694.06
2023-05-10T07:57:29.590Z,101702.41
2023-05-10T08:00:52.245Z,101692.56
2023-05-10T08:04:16.235Z,101702.31
2023-05-10T08:07:40.437Z,101697.09
2023-05-10T08:11:03.080Z,101698.50
2023-05-10T08:14:29.510Z,101701.31
2023-05-10T08:17:52.646Z,101695.75
2023-05-10T08:21:16.752Z,101698.97
2023-05-10T08:24:40.643Z,101701.94
2023-05-10T08:28:02.991Z,101703.00
2023-05-10T08:31:25.555Z,101696.78
2023-05-10T08:34:48.093Z,101697.03
2023-05-10T08:38:12.584Z,101693.06
2023-05-10T08:41:38.526Z,101685.34
2023-05-10T08:45:02.735Z,101687.56
2023-05-10T08:48:31.732Z,101685.88
2023-05-10T08:51:58.151Z,101682.34
2023-05-10T08:55:22.240Z,101685.84
2023-05-10T08:58:45.193Z,101685.97
2023-05-10T09:02:09.080Z,101686.09
2023-05-10T09:05:31.903Z,101673.44
2023-05-10T09:08:55.624Z,101684.38
2023-05-10T09:12:19.717Z,101683.22
2023-05-10T09:15:42.050Z,101671.31
2023-05-10T09:19:04.670Z,101672.28
2023-05-10T09:22:27.764Z,101672.28
2023-05-10T09:25:50.519Z,101666.34
2023-05-10T09:29:17.241Z,101671.44
2023-05-10T09:32:41.394Z,101667.41
2023-05-10T09:36:09.945Z,101617.06
2023-05-10T09:39:36.743Z,101661.03
2023-05-10T09:43:01.184Z,101666.34
2023-05-10T09:46:27.654Z,101662.00
2023-05-10T09:49:52.948Z,101633.53
2023-05-10T09:53:18.561Z,101661.25
2023-05-10T09:56:41.943Z,101649.53
2023-05-10T10:00:06.445Z,101659.88
2023-05-10T10:03:31.746Z,101657.31
2023-05-10T10:07:14.680Z,101655.69
2023-05-10T10:10:37.399Z,101641.91
2023-05-10T10:14:00.951Z,101644.66
2023-05-10T10:17:24.308Z,101644.31
2023-05-10T10:20:49.076Z,101647.84
2023-05-10T10:24:11.636Z,101644.97
2023-05-10T10:27:43.884Z,101641.03
2023-05-10T10:31:20.911Z,101636.34
2023-05-10T10:34:43.762Z,101633.16
2023-05-10T10:38:11.112Z,101633.03
2023-05-10T10:41:35.722Z,101626.09
2023-05-10T10:45:15.638Z,101636.59
2023-05-10T10:48:38.936Z,101629.50
2023-05-10T10:52:29.954Z,101626.41
2023-05-10T10:56:09.304Z,101614.41
2023-05-10T10:59:31.920Z,101621.09
2023-05-10T11:02:56.582Z,101619.94
2023-05-10T11:06:32.925Z,101617.16
2023-05-10T11:09:56.906Z,101617.06
2023-05-10T11:13:30.929Z,101613.38
2023-05-10T11:16:53.888Z,101609.34
2023-05-10T11:20:20.628Z,101610.94
2023-05-10T11:23:57.554Z,101594.81
2023-05-10T11:27:21.420Z,101597.31
2023-05-10T11:30:47.572Z,101578.66
2023-05-10T11:34:10.291Z,101593.53
2023-05-10T11:37:35.606Z,101591.47
2023-05-10T11:40:59.402Z,101588.81
2023-05-10T11:44:22.708Z,101586.22
2023-05-10T11:47:46.802Z,101593.06
2023-05-10T11:51:10.631Z,101589.47
2023-05-10T11:54:36.276Z,101585.94
2023-05-10T11:58:03.731Z,101578.31
2023-05-10T12:01:28.091Z,101560.44
2023-05-10T12:04:53.150Z,101576.31
2023-05-10T12:08:17.511Z,101555.63
2023-05-10T12:11:44.190Z,101567.00
2023-05-10T12:15:08.958Z,101555.63
2023-05-10T12:18:32.454Z,101560.25
2023-05-10T12:21:56.309Z,101554.13
2023-05-10T12:25:19.368Z,101558.13
2023-05-10T12:28:42.137Z,101550.66
2023-05-10T12:32:05.421Z,101554.78
2023-05-10T12:35:28.147Z,101553.16
2023-05-10T12:38:54.188Z,101550.09
2023-05-10T12:42:16.534Z,101555.69
2023-05-10T12:45:39.098Z,101551.47
2023-05-10T12:49:08.882Z,101548.03
2023-05-10T12:52:34.116Z,101544.13
2023-05-10T13:00:45.807Z,101540.22
2023-05-10T13:04:08.939Z,101538.53
2023-05-10T13:07:32.168Z,101533.09
2023-05-10T13:10:55.639Z,101531.03
2023-05-10T13:14:21.707Z,101540.84
2023-05-10T13:17:51.532Z,101533.31
2023-05-10T13:21:15.280Z,101539.38
2023-05-10T13:24:41.420Z,101528.00
2023-05-10T13:28:04.981Z,101524.16
2023-05-10T13:31:29.508Z,101528.00
2023-05-10T13:34:55.314Z,101538.91
2023-05-10T13:38:22.288Z,101536.84
2023-05-10T13:41:46.356Z,101529.22
2023-05-10T13:45:10.128Z,101527.97
2023-05-10T13:48:33.102Z,101519.03
2023-05-10T13:51:57.910Z,101511.88
2023-05-10T13:55:24.456Z,101516.59
2023-05-10T13:58:47.922Z,101511.28
2023-05-10T14:02:10.421Z,101508.75
2023-05-10T14:05:33.230Z,101505.50
2023-05-10T14:08:58.846Z,101501.59
2023-05-10T14:12:21.691Z,101503.56
2023-05-10T14:15:45.476Z,101504.19
2023-05-10T14:19:08.862Z,101489.78
2023-05-10T14:22:31.992Z,101499.22
2023-05-10T14:25:56.587Z,101494.97
2023-05-10T14:29:19.985Z,101500.28
2023-05-10T14:32:44.286Z,101506.53
2023-05-10T14:36:08.354Z,101491.88
2023-05-10T14:39:32.751Z,101495.75
2023-05-10T14:42:57.852Z,101495.41
2023-05-10T14:46:21.475Z,101493.59
2023-05-10T14:49:45.620Z,101492.75
2023-05-10T14:53:09.293Z,101490.88
2023-05-10T14:56:32.258Z,101489.78
2023-05-10T14:59:57.458Z,101478.50
2023-05-10T15:03:21.252Z,101479.34
2023-05-10T15:06:46.766Z,101477.44
2023-05-10T15:10:12.310Z,101483.97
2023-05-10T15:13:34.932Z,101477.09
2023-05-10T15:17:00.862Z,101479.47
2023-05-10T15:20:24.572Z,101476.34
2023-05-10T15:23:47.809Z,101473.22
2023-05-10T15:27:11.897Z,101472.38
2023-05-10T15:30:35.679Z,101469.81
2023-05-10T15:34:02.250Z,101468.47
2023-05-10T15:37:25.895Z,101471.63
2023-05-10T15:40:49.473Z,101475.28
2023-05-10T15:44:15.406Z,101469.22
2023-05-10T15:47:40.630Z,101468.59
2023-05-10T15:51:06.587Z,101467.63
2023-05-10T15:54:31.449Z,101474.66
2023-05-10T15:57:54.515Z,101470.31
2023-05-10T16:01:18.137Z,101476.69
2023-05-10T16:04:41.662Z,101476.94
2023-05-10T16:08:07.602Z,101477.91
2023-05-10T16:11:33.853Z,101476.59
2023-05-10T16:15:05.803Z,101473.19
2023-05-10T16:18:30.944Z,101478.78
2023-05-10T16:21:55.127Z,101480.06
2023-05-10T16:25:21.340Z,101480.13
2023-05-10T16:28:46.960Z,101475.31
2023-05-10T16:32:12.786Z,101485.50
2023-05-10T16:35:37.087Z,101485.38
2023-05-10T16:39:08.077Z,101489.97
2023-05-10T16:42:37.139Z,101482.69
2023-05-10T16:46:03.115Z,101486.13
2023-05-10T16:49:27.348Z,101493.56
2023-05-10T16:52:51.170Z,101492.38
2023-05-10T16:56:14.697Z,101489.94
2023-05-10T16:59:43.502Z,101487.34
2023-05-10T17:03:07.474Z,101496.91
2023-05-10T17:06:36.077Z,101493.41
2023-05-10T17:10:00.889Z,101497.66
2023-05-10T17:13:24.252Z,101500.47
2023-05-10T17:16:50.520Z,101499.50
2023-05-10T17:20:17.444Z,101503.88
2023-05-10T17:23:42.051Z,101510.06
2023-05-10T17:27:08.478Z,101513.72
2023-05-10T17:30:34.881Z,101512.88
2023-05-10T17:34:05.666Z,101513.38
2023-05-10T17:37:29.869Z,101514.63
2023-05-10T17:40:56.099Z,101518.13
2023-05-10T17:44:23.515Z,101515.78
2023-05-10T17:47:49.769Z,101518.28
2023-05-10T17:51:16.442Z,101516.31
2023-05-10T17:55:02.233Z,101519.56
2023-05-10T17:58:27.553Z,101530.44
2023-05-10T18:02:15.082Z,101514.41
2023-05-10T18:05:41.046Z,101532.84
2023-05-10T18:09:25.984Z,101536.31
2023-05-10T18:12:51.205Z,101546.72
2023-05-10T18:16:16.468Z,101552.56
2023-05-10T18:19:40.809Z,101550.34
2023-05-10T18:23:05.123Z,101556.16
2023-05-10T18:26:29.898Z,101555.88
2023-05-10T18:29:54.605Z,101551.22
2023-05-10T18:33:18.455Z,101556.06
2023-05-10T18:36:45.234Z,101559.81
2023-05-10T18:40:15.570Z,101571.03
2023-05-10T18:43:47.321Z,101565.47
2023-05-10T18:47:23.549Z,101571.03
2023-05-10T18:50:48.718Z,101575.47
2023-05-10T18:54:18.843Z,101562.63
2023-05-10T18:57:43.857Z,101572.44
2023-05-10T19:01:09.214Z,101576.19
2023-05-10T19:04:36.488Z,101580.94
2023-05-10T19:08:05.431Z,101580.16
2023-05-10T19:11:33.506Z,101585.19
2023-05-10T19:14:56.878Z,101583.38
2023-05-10T19:18:24.683Z,101577.16
2023-05-10T19:21:50.965Z,101584.16
2023-05-10T19:25:20.092Z,101587.50
2023-05-10T19:28:48.072Z,101583.25
2023-05-10T19:32:11.806Z,101581.44
2023-05-10T19:35:35.493Z,101602.88
2023-05-10T19:38:57.784Z,101601.66
2023-05-10T19:42:20.693Z,101583.03
2023-05-10T19:45:43.598Z,101576.78
2023-05-10T19:49:05.735Z,101585.06
2023-05-10T19:52:29.687Z,101569.19
2023-05-10T19:55:51.749Z,101596.09
2023-05-10T19:59:13.635Z,101587.34
2023-05-10T20:02:35.401Z,101597.25
2023-05-10T20:05:57.456Z,101598.41
2023-05-10T20:09:21.035Z,101599.72
2023-05-10T20:12:42.939Z,101592.38
2023-05-10T20:16:06.240Z,101610.22
2023-05-10T20:19:28.170Z,101594.38
2023-05-10T20:22:50.777Z,101608.41
2023-05-10T20:26:14.792Z,101604.28
2023-05-10T20:29:36.870Z,101596.84
2023-05-10T20:32:58.874Z,101582.69
2023-05-10T20:36:20.791Z,101531.56
2023-05-10T20:39:43.034Z,101611.25
2023-05-10T20:43:06.645Z,101576.09
2023-05-10T20:46:29.097Z,101609.16
2023-05-10T20:49:51.428Z,101572.19
2023-05-10T20:53:14.653Z,101616.63
2023-05-10T20:56:36.406Z,101607.88
2023-05-10T20:59:59.735Z,101614.91
2023-05-10T21:03:21.694Z,101616.78
2023-05-10T21:06:44.691Z,101622.03
2023-05-10T21:10:07.685Z,101624.03
2023-05-10T21:13:29.512Z,101618.16
2023-05-10T21:16:52.727Z,101627.91
2023-05-10T21:20:15.423Z,101628.97
2023-05-10T21:23:37.517Z,101634.44
2023-05-10T21:26:59.275Z,101637.19
2023-05-10T21:30:21.140Z,101641.66
2023-05-10T21:33:44.267Z,101642.66
2023-05-10T21:37:06.155Z,101642.84
2023-05-10T21:40:27.942Z,101636.84
2023-05-10T21:43:49.640Z,101646.56
2023-05-10T21:47:13.853Z,101628.75
2023-05-10T21:50:37.045Z,101642.59
2023-05-10T21:53:59.008Z,101648.97
2023-05-10T21:57:21.669Z,101627.63
2023-05-10T22:00:44.071Z,101647.47
2023-05-10T22:04:05.817Z,101649.38
2023-05-10T22:07:31.585Z,101649.53
2023-05-10T22:10:53.388Z,101649.81
2023-05-10T22:14:15.259Z,101658.59
2023-05-10T22:17:39.323Z,101657.78
2023-05-10T22:21:01.514Z,101655.22
2023-05-10T22:24:24.791Z,101660.56
2023-05-10T22:27:46.607Z,101656.31
2023-05-10T22:31:11.585Z,101664.22
2023-05-10T22:34:36.320Z,101666.09
2023-05-10T22:37:58.258Z,101661.78
2023-05-10T22:41:22.669Z,101668.69
2023-05-10T22:44:44.789Z,101668.69
2023-05-10T22:48:06.907Z,101680.03
2023-05-10T22:51:29.295Z,101680.09
2023-05-10T22:54:51.078Z,101671.38
2023-05-10T22:58:14.425Z,101681.84
2023-05-10T23:01:39.311Z,101681.97
2023-05-10T23:05:05.474Z,101677.56
2023-05-10T23:08:27.750Z,101688.06
2023-05-10T23:11:49.610Z,101688.06
2023-05-10T23:15:13.149Z,101682.94
2023-05-10T23:18:35.302Z,101687.28
2023-05-10T23:21:57.083Z,101689.16
2023-05-10T23:25:19.315Z,101690.09
2023-05-10T23:28:41.220Z,101687.59
2023-05-10T23:32:04.764Z,101688.50
2023-05-10T23:35:26.804Z,101687.69
2023-05-10T23:38:48.505Z,101692.16
2023-05-10T23:42:10.637Z,101688.78
2023-05-10T23:45:35.369Z,101687.16
2023-05-10T23:48:58.770Z,101696.91
2023-05-10T23:52:22.891Z,101694.47
2023-05-10T23:55:44.932Z,101692.91
2023-05-10T23:59:10.114Z,101693.84
